createdAt,value
2018-05-09T00:00:40.054Z,81.90
2018-05-09T00:01:48.592Z,81.80
2018-05-09T00:02:57.298Z,81.70
2018-05-09T00:04:05.847Z,81.50
2018-05-09T00:05:14.451Z,81.20
2018-05-09T00:06:23.049Z,81.00
2018-05-09T00:07:31.726Z,80.90
2018-05-09T00:08:40.398Z,81.00
2018-05-09T00:09:48.989Z,81.10
2018-05-09T00:10:58.631Z,81.70
2018-05-09T00:12:07.348Z,81.70
2018-05-09T00:13:17.565Z,82.60
2018-05-09T00:14:26.258Z,82.60
2018-05-09T00:15:35.014Z,82.90
2018-05-09T00:16:44.409Z,83.50
2018-05-09T00:17:53.100Z,83.50
2018-05-09T00:19:01.766Z,84.00
2018-05-09T00:20:10.366Z,84.90
2018-05-09T00:21:18.998Z,85.40
2018-05-09T00:22:27.703Z,85.60
2018-05-09T00:23:37.107Z,85.20
2018-05-09T00:24:45.823Z,85.20
2018-05-09T00:25:54.568Z,85.30
2018-05-09T00:27:03.137Z,85.00
2018-05-09T00:28:12.572Z,84.80
2018-05-09T00:29:22.091Z,84.80
2018-05-09T00:30:30.779Z,85.00
2018-05-09T00:31:39.363Z,84.80
2018-05-09T00:32:47.932Z,84.80
2018-05-09T00:33:57.442Z,84.70
2018-05-09T00:35:06.303Z,84.70
2018-05-09T00:36:14.824Z,84.60
2018-05-09T00:37:23.354Z,84.60
2018-05-09T00:38:31.990Z,85.00
2018-05-09T00:39:40.595Z,85.40
2018-05-09T00:40:50.236Z,85.50
2018-05-09T00:41:58.983Z,85.40
2018-05-09T00:43:07.571Z,85.80
2018-05-09T00:44:16.285Z,86.00
2018-05-09T00:45:25.802Z,86.30
2018-05-09T00:46:34.659Z,86.30
2018-05-09T00:47:43.455Z,86.40
2018-05-09T00:48:52.217Z,86.60
2018-05-09T00:50:01.080Z,86.70
2018-05-09T00:51:09.626Z,86.90
2018-05-09T00:52:18.186Z,86.90
2018-05-09T00:53:26.894Z,87.10
2018-05-09T00:54:35.693Z,87.20
2018-05-09T00:55:44.299Z,87.20
2018-05-09T00:56:52.909Z,87.40
2018-05-09T00:58:01.620Z,87.40
2018-05-09T00:59:10.202Z,87.50
2018-05-09T01:00:19.639Z,87.20
2018-05-09T01:01:29.208Z,87.20
2018-05-09T01:02:38.799Z,87.20
2018-05-09T01:03:47.401Z,87.10
2018-05-09T01:04:56.138Z,87.10
2018-05-09T01:06:04.731Z,86.80
2018-05-09T01:07:13.459Z,86.70
2018-05-09T01:08:22.011Z,86.70
2018-05-09T01:09:30.657Z,86.40
2018-05-09T01:10:39.283Z,86.50
2018-05-09T01:11:48.108Z,86.60
2018-05-09T01:12:56.826Z,86.80
2018-05-09T01:14:05.623Z,86.80
2018-05-09T01:15:14.294Z,86.80
2018-05-09T01:16:23.043Z,87.00
2018-05-09T01:17:31.699Z,87.30
2018-05-09T01:18:40.514Z,87.50
2018-05-09T01:19:49.282Z,87.70
2018-05-09T01:20:58.876Z,88.20
2018-05-09T01:22:08.413Z,88.20
2018-05-09T01:23:18.088Z,88.50
2018-05-09T01:24:27.000Z,88.50
2018-05-09T01:25:35.634Z,88.90
2018-05-09T01:26:45.228Z,89.80
2018-05-09T01:27:54.042Z,89.80
2018-05-09T01:29:02.638Z,89.90
2018-05-09T01:30:11.330Z,89.90
2018-05-09T01:31:19.994Z,90.00
2018-05-09T01:32:29.283Z,90.00
2018-05-09T01:33:38.027Z,90.00
2018-05-09T01:34:47.614Z,90.10
2018-05-09T01:35:56.331Z,90.10
2018-05-09T01:37:05.846Z,90.20
2018-05-09T01:38:14.604Z,90.10
2018-05-09T01:39:23.276Z,90.30
2018-05-09T01:40:31.955Z,90.40
2018-05-09T01:41:41.528Z,90.60
2018-05-09T01:42:50.192Z,90.60
2018-05-09T01:43:58.826Z,90.60
2018-05-09T01:45:07.467Z,90.70
2018-05-09T01:46:15.998Z,91.00
2018-05-09T01:47:24.653Z,90.70
2018-05-09T01:48:33.313Z,90.70
2018-05-09T01:49:42.705Z,90.80
2018-05-09T01:50:52.046Z,90.90
2018-05-09T01:52:00.676Z,90.80
2018-05-09T01:53:09.485Z,90.90
2018-05-09T01:54:19.224Z,91.10
2018-05-09T01:55:27.991Z,91.00
2018-05-09T01:56:36.655Z,91.20
2018-05-09T01:57:45.346Z,91.30
2018-05-09T01:58:54.170Z,91.30
2018-05-09T02:00:02.766Z,91.20
2018-05-09T02:01:12.989Z,91.10
2018-05-09T02:02:21.475Z,91.10
2018-05-09T02:03:30.045Z,91.10
2018-05-09T02:04:39.437Z,91.20
2018-05-09T02:05:48.018Z,91.20
2018-05-09T02:06:57.592Z,91.40
2018-05-09T02:08:06.310Z,91.40
2018-05-09T02:09:15.046Z,91.60
2018-05-09T02:10:23.735Z,91.70
2018-05-09T02:11:33.167Z,91.90
2018-05-09T02:12:41.740Z,91.90
2018-05-09T02:13:50.495Z,92.00
2018-05-09T02:14:59.063Z,92.10
2018-05-09T02:16:07.669Z,92.20
2018-05-09T02:17:16.432Z,92.30
2018-05-09T02:18:25.075Z,92.40
2018-05-09T02:19:33.799Z,92.60
2018-05-09T02:20:42.404Z,92.70
2018-05-09T02:21:51.119Z,92.70
2018-05-09T02:23:00.498Z,92.90
2018-05-09T02:24:09.188Z,92.90
2018-05-09T02:25:17.756Z,92.90
2018-05-09T02:26:26.527Z,93.00
2018-05-09T02:27:36.044Z,93.00
2018-05-09T02:28:44.661Z,93.00
2018-05-09T02:29:53.300Z,93.00
2018-05-09T02:31:01.914Z,93.00
2018-05-09T02:32:11.293Z,93.10
2018-05-09T02:33:20.011Z,93.10
2018-05-09T02:34:28.595Z,93.20
2018-05-09T02:35:37.201Z,93.30
2018-05-09T02:36:45.934Z,93.30
2018-05-09T02:37:54.622Z,93.30
2018-05-09T02:39:03.249Z,93.20
2018-05-09T02:40:11.933Z,93.20
2018-05-09T02:41:21.491Z,93.30
2018-05-09T02:42:30.151Z,93.30
2018-05-09T02:43:38.759Z,93.40
2018-05-09T02:44:47.409Z,93.60
2018-05-09T02:45:56.103Z,93.70
2018-05-09T02:47:04.807Z,93.70
2018-05-09T02:48:13.611Z,93.90
2018-05-09T02:49:22.308Z,93.90
2018-05-09T02:50:31.090Z,93.90
2018-05-09T02:51:39.693Z,93.80
2018-05-09T02:52:48.425Z,93.80
2018-05-09T02:53:58.064Z,94.00
2018-05-09T02:55:06.651Z,94.10
2018-05-09T02:56:15.352Z,94.20
2018-05-09T02:57:24.110Z,94.30
2018-05-09T02:58:32.950Z,94.30
2018-05-09T02:59:41.657Z,94.40
2018-05-09T03:00:50.483Z,94.30
2018-05-09T03:01:59.083Z,94.40
2018-05-09T03:03:07.659Z,94.50
2018-05-09T03:04:16.446Z,94.60
2018-05-09T03:05:25.304Z,94.70
2018-05-09T03:06:33.920Z,94.70
2018-05-09T03:07:42.744Z,94.70
2018-05-09T03:08:51.432Z,94.70
2018-05-09T03:10:00.012Z,94.70
2018-05-09T03:11:08.772Z,94.80
2018-05-09T03:12:18.271Z,94.80
2018-05-09T03:13:26.995Z,94.80
2018-05-09T03:14:36.497Z,94.90
2018-05-09T03:15:45.219Z,94.90
2018-05-09T03:16:53.907Z,95.00
2018-05-09T03:18:02.599Z,95.10
2018-05-09T03:19:11.289Z,95.10
2018-05-09T03:20:20.002Z,95.20
2018-05-09T03:21:28.631Z,95.20
2018-05-09T03:22:37.378Z,95.30
2018-05-09T03:23:45.919Z,95.30
2018-05-09T03:24:54.591Z,95.30
2018-05-09T03:26:03.339Z,95.30
2018-05-09T03:27:12.000Z,95.30
2018-05-09T03:28:20.786Z,95.40
2018-05-09T03:29:30.270Z,95.60
2018-05-09T03:30:38.982Z,95.50
2018-05-09T03:31:47.579Z,95.60
2018-05-09T03:32:56.072Z,95.60
2018-05-09T03:34:05.773Z,95.70
2018-05-09T03:35:14.423Z,95.70
2018-05-09T03:36:23.053Z,95.70
2018-05-09T03:37:31.811Z,95.80
2018-05-09T03:38:40.451Z,95.90
2018-05-09T03:39:49.082Z,95.90
2018-05-09T03:40:57.725Z,95.80
2018-05-09T03:42:06.475Z,95.70
2018-05-09T03:43:16.013Z,95.80
2018-05-09T03:44:24.756Z,95.80
2018-05-09T03:45:34.257Z,96.00
2018-05-09T03:46:43.037Z,95.90
2018-05-09T03:47:51.709Z,96.00
2018-05-09T03:49:00.217Z,96.00
2018-05-09T03:50:08.934Z,96.00
2018-05-09T03:51:18.542Z,96.10
2018-05-09T03:52:27.974Z,96.00
2018-05-09T03:53:36.567Z,96.00
2018-05-09T03:54:45.169Z,96.00
2018-05-09T03:55:54.529Z,96.00
2018-05-09T03:57:03.030Z,96.00
2018-05-09T03:58:11.604Z,96.00
2018-05-09T03:59:20.995Z,96.40
2018-05-09T04:00:29.667Z,96.30
2018-05-09T04:01:50.318Z,96.40
2018-05-09T04:03:10.827Z,96.40
2018-05-09T04:04:31.419Z,96.50
2018-05-09T04:05:51.987Z,96.40
2018-05-09T04:07:12.749Z,96.40
2018-05-09T04:08:33.536Z,97.40
2018-05-09T04:09:57.818Z,97.00
2018-05-09T04:11:06.414Z,96.90
2018-05-09T04:12:15.039Z,96.50
2018-05-09T04:13:23.761Z,96.40
2018-05-09T04:14:32.407Z,96.40
2018-05-09T04:15:41.165Z,96.10
2018-05-09T04:16:49.883Z,95.90
2018-05-09T04:17:58.596Z,96.00
2018-05-09T04:19:07.397Z,95.90
2018-05-09T04:20:16.221Z,95.70
2018-05-09T04:21:24.976Z,95.50
2018-05-09T04:22:33.718Z,95.40
2018-05-09T04:23:43.245Z,95.50
2018-05-09T04:24:51.929Z,95.50
2018-05-09T04:26:00.690Z,95.50
2018-05-09T04:27:09.402Z,95.40
2018-05-09T04:28:18.150Z,95.40
2018-05-09T04:29:26.712Z,95.30
2018-05-09T04:30:35.321Z,95.40
2018-05-09T04:31:44.087Z,95.40
2018-05-09T04:32:52.731Z,95.40
2018-05-09T04:34:01.378Z,95.40
2018-05-09T04:35:10.882Z,95.40
2018-05-09T04:36:19.893Z,95.40
2018-05-09T04:37:28.434Z,95.50
2018-05-09T04:38:37.100Z,95.50
2018-05-09T04:39:46.533Z,95.60
2018-05-09T04:40:55.179Z,95.50
2018-05-09T04:42:03.855Z,95.50
2018-05-09T04:43:12.547Z,95.70
2018-05-09T04:44:21.209Z,95.80
2018-05-09T04:45:30.710Z,95.80
2018-05-09T04:46:39.354Z,95.80
2018-05-09T04:47:48.132Z,95.90
2018-05-09T04:48:57.639Z,96.40
2018-05-09T04:50:06.252Z,96.20
2018-05-09T04:51:15.698Z,96.40
2018-05-09T04:52:24.233Z,96.40
2018-05-09T04:53:32.855Z,96.50
2018-05-09T04:54:41.446Z,96.50
2018-05-09T04:55:50.075Z,96.70
2018-05-09T04:56:58.626Z,96.80
2018-05-09T04:58:07.226Z,96.80
2018-05-09T04:59:15.832Z,96.90
2018-05-09T05:00:24.391Z,97.00
2018-05-09T05:01:33.903Z,96.80
2018-05-09T05:02:42.617Z,96.80
2018-05-09T05:03:51.243Z,96.80
2018-05-09T05:04:59.898Z,96.80
2018-05-09T05:06:08.662Z,96.70
2018-05-09T05:07:17.430Z,96.70
2018-05-09T05:08:26.114Z,96.80
2018-05-09T05:09:34.796Z,96.90
2018-05-09T05:10:43.391Z,96.60
2018-05-09T05:11:52.177Z,96.40
2018-05-09T05:13:00.813Z,96.40
2018-05-09T05:14:09.497Z,96.30
2018-05-09T05:15:18.110Z,96.40
2018-05-09T05:16:26.690Z,96.40
2018-05-09T05:17:35.327Z,96.40
2018-05-09T05:18:43.932Z,96.50
2018-05-09T05:19:52.638Z,96.50
2018-05-09T05:21:01.387Z,96.50
2018-05-09T05:22:10.104Z,96.40
2018-05-09T05:23:18.691Z,96.40
2018-05-09T05:24:27.277Z,96.50
2018-05-09T05:25:35.879Z,96.40
2018-05-09T05:26:44.551Z,96.50
2018-05-09T05:27:54.200Z,96.10
2018-05-09T05:29:04.508Z,95.80
2018-05-09T05:30:13.256Z,95.90
2018-05-09T05:31:22.074Z,95.70
2018-05-09T05:32:30.739Z,95.70
2018-05-09T05:33:39.399Z,95.70
2018-05-09T05:34:48.771Z,95.80
2018-05-09T05:35:57.395Z,95.70
2018-05-09T05:37:06.069Z,95.90
2018-05-09T05:38:15.550Z,95.50
2018-05-09T05:39:24.331Z,95.70
2018-05-09T05:40:33.023Z,95.80
2018-05-09T05:41:41.614Z,95.70
2018-05-09T05:42:50.295Z,95.60
2018-05-09T05:43:58.907Z,95.60
2018-05-09T05:45:07.393Z,95.60
2018-05-09T05:46:15.984Z,95.70
2018-05-09T05:47:24.622Z,95.70
2018-05-09T05:48:33.448Z,95.70
2018-05-09T05:49:42.105Z,95.60
2018-05-09T05:50:51.537Z,95.50
2018-05-09T05:52:00.068Z,95.50
2018-05-09T05:53:08.786Z,95.50
2018-05-09T05:54:18.225Z,95.60
2018-05-09T05:55:27.032Z,95.60
2018-05-09T05:56:35.596Z,95.50
2018-05-09T05:57:45.079Z,95.80
2018-05-09T05:58:53.769Z,95.70
2018-05-09T06:00:02.544Z,95.80
2018-05-09T06:01:11.747Z,95.80
2018-05-09T06:02:20.518Z,95.80
2018-05-09T06:03:29.965Z,96.00
2018-05-09T06:04:38.769Z,95.90
2018-05-09T06:05:47.426Z,96.00
2018-05-09T06:06:55.986Z,96.00
2018-05-09T06:08:04.737Z,95.80
2018-05-09T06:09:13.294Z,95.90
2018-05-09T06:10:21.865Z,95.90
2018-05-09T06:11:30.486Z,96.00
2018-05-09T06:12:39.204Z,95.90
2018-05-09T06:13:47.790Z,95.90
2018-05-09T06:14:56.473Z,95.80
2018-05-09T06:16:05.121Z,95.70
2018-05-09T06:17:13.867Z,95.80
2018-05-09T06:18:22.473Z,95.80
2018-05-09T06:19:31.893Z,95.80
2018-05-09T06:20:40.593Z,95.80
2018-05-09T06:21:49.313Z,95.80
2018-05-09T06:22:57.996Z,95.90
2018-05-09T06:24:06.764Z,95.80
2018-05-09T06:25:15.347Z,95.70
2018-05-09T06:26:23.942Z,95.70
2018-05-09T06:27:32.543Z,95.70
2018-05-09T06:28:41.186Z,95.60
2018-05-09T06:29:49.703Z,95.50
2018-05-09T06:30:58.551Z,95.40
2018-05-09T06:32:07.215Z,95.20
2018-05-09T06:33:15.874Z,95.20
2018-05-09T06:34:24.480Z,95.20
2018-05-09T06:35:33.262Z,95.20
2018-05-09T06:36:42.027Z,95.20
2018-05-09T06:37:51.503Z,95.20
2018-05-09T06:39:00.094Z,95.20
2018-05-09T06:40:08.762Z,95.10
2018-05-09T06:41:17.401Z,95.20
2018-05-09T06:42:25.994Z,95.40
2018-05-09T06:43:34.605Z,95.50
2018-05-09T06:44:43.299Z,95.40
2018-05-09T06:45:52.109Z,95.30
2018-05-09T06:47:00.707Z,95.10
2018-05-09T06:48:09.448Z,95.10
2018-05-09T06:49:18.062Z,95.10
2018-05-09T06:50:26.772Z,95.10
2018-05-09T06:51:35.466Z,95.00
2018-05-09T06:52:44.302Z,95.10
2018-05-09T06:53:53.127Z,95.00
2018-05-09T06:55:01.812Z,94.90
2018-05-09T06:56:10.433Z,94.90
2018-05-09T06:57:19.156Z,95.00
2018-05-09T06:58:27.892Z,94.90
2018-05-09T06:59:36.533Z,94.80
2018-05-09T07:00:45.215Z,94.90
2018-05-09T07:01:53.813Z,95.10
2018-05-09T07:03:02.435Z,95.10
2018-05-09T07:04:12.587Z,95.00
2018-05-09T07:05:21.295Z,95.00
2018-05-09T07:06:30.081Z,94.90
2018-05-09T07:07:38.509Z,94.90
2018-05-09T07:08:47.168Z,95.00
2018-05-09T07:09:55.951Z,95.10
2018-05-09T07:11:04.682Z,95.10
2018-05-09T07:12:13.499Z,95.10
2018-05-09T07:13:22.218Z,95.10
2018-05-09T07:14:31.058Z,94.90
2018-05-09T07:15:39.710Z,95.00
2018-05-09T07:16:49.172Z,95.10
2018-05-09T07:17:58.002Z,95.10
2018-05-09T07:19:06.815Z,95.00
2018-05-09T07:20:15.689Z,94.70
2018-05-09T07:21:24.407Z,94.60
2018-05-09T07:22:33.302Z,94.60
2018-05-09T07:23:42.002Z,94.60
2018-05-09T07:24:51.446Z,94.40
2018-05-09T07:26:00.138Z,94.40
2018-05-09T07:27:08.953Z,94.40
2018-05-09T07:28:17.585Z,94.40
2018-05-09T07:29:26.355Z,94.50
2018-05-09T07:30:35.814Z,94.50
2018-05-09T07:31:44.408Z,94.50
2018-05-09T07:32:53.016Z,94.10
2018-05-09T07:34:01.627Z,93.80
2018-05-09T07:35:10.341Z,93.70
2018-05-09T07:36:19.087Z,93.60
2018-05-09T07:37:28.517Z,93.30
2018-05-09T07:38:37.222Z,93.30
2018-05-09T07:39:45.834Z,93.40
2018-05-09T07:40:54.386Z,93.40
2018-05-09T07:42:02.994Z,93.50
2018-05-09T07:43:11.627Z,93.70
2018-05-09T07:44:20.242Z,93.60
2018-05-09T07:45:28.855Z,93.40
2018-05-09T07:46:37.580Z,93.40
2018-05-09T07:47:46.226Z,93.40
2018-05-09T07:48:55.528Z,93.20
2018-05-09T07:50:04.282Z,93.00
2018-05-09T07:51:13.080Z,92.90
2018-05-09T07:52:21.776Z,93.00
2018-05-09T07:53:30.347Z,92.80
2018-05-09T07:54:39.033Z,92.80
2018-05-09T07:55:47.679Z,92.90
2018-05-09T07:56:56.369Z,92.90
2018-05-09T07:58:05.719Z,92.80
2018-05-09T07:59:14.260Z,92.70
2018-05-09T08:00:22.901Z,92.70
2018-05-09T08:01:32.355Z,92.90
2018-05-09T08:02:41.097Z,92.90
2018-05-09T08:03:49.814Z,92.80
2018-05-09T08:04:58.437Z,92.50
2018-05-09T08:06:07.100Z,92.50
2018-05-09T08:07:15.698Z,92.50
2018-05-09T08:08:25.181Z,92.50
2018-05-09T08:09:33.861Z,92.50
2018-05-09T08:10:42.455Z,92.60
2018-05-09T08:11:51.094Z,92.60
2018-05-09T08:12:59.802Z,92.50
2018-05-09T08:14:09.339Z,92.70
2018-05-09T08:15:18.043Z,92.70
2018-05-09T08:16:26.740Z,92.50
2018-05-09T08:17:35.340Z,92.50
2018-05-09T08:18:44.040Z,92.30
2018-05-09T08:19:52.687Z,91.90
2018-05-09T08:21:02.091Z,91.80
2018-05-09T08:22:10.760Z,91.80
2018-05-09T08:23:19.487Z,91.80
2018-05-09T08:24:28.158Z,91.90
2018-05-09T08:25:36.946Z,91.80
2018-05-09T08:26:45.790Z,92.00
2018-05-09T08:27:54.421Z,92.10
2018-05-09T08:29:02.985Z,92.30
2018-05-09T08:30:11.625Z,92.30
2018-05-09T08:31:20.551Z,92.10
2018-05-09T08:32:29.224Z,91.80
2018-05-09T08:33:37.870Z,91.90
2018-05-09T08:34:46.499Z,91.80
2018-05-09T08:35:55.097Z,91.60
2018-05-09T08:37:03.759Z,91.50
2018-05-09T08:38:12.419Z,91.50
2018-05-09T08:39:21.162Z,91.50
2018-05-09T08:40:29.839Z,91.40
2018-05-09T08:41:38.327Z,91.30
2018-05-09T08:42:47.088Z,91.30
2018-05-09T08:43:55.673Z,91.20
2018-05-09T08:45:04.330Z,90.60
2018-05-09T08:46:12.897Z,90.50
2018-05-09T08:47:21.515Z,90.20
2018-05-09T08:48:30.223Z,90.00
2018-05-09T08:49:38.831Z,90.20
2018-05-09T08:50:47.560Z,90.20
2018-05-09T08:51:56.268Z,90.60
2018-05-09T08:53:05.594Z,90.80
2018-05-09T08:54:14.303Z,90.80
2018-05-09T08:55:23.141Z,90.90
2018-05-09T08:56:31.681Z,91.00
2018-05-09T08:57:40.294Z,91.00
2018-05-09T08:58:49.702Z,90.90
2018-05-09T08:59:58.402Z,90.90
2018-05-09T09:01:07.166Z,90.90
2018-05-09T09:02:15.844Z,90.70
2018-05-09T09:03:24.713Z,90.60
2018-05-09T09:04:33.468Z,90.50
2018-05-09T09:05:42.226Z,90.50
2018-05-09T09:06:50.800Z,90.60
2018-05-09T09:07:59.540Z,90.60
2018-05-09T09:09:08.193Z,90.30
2018-05-09T09:10:16.767Z,90.30
2018-05-09T09:11:25.457Z,90.20
2018-05-09T09:12:34.069Z,90.00
2018-05-09T09:13:42.805Z,89.70
2018-05-09T09:14:51.375Z,89.00
2018-05-09T09:16:00.067Z,89.30
2018-05-09T09:17:08.688Z,88.80
2018-05-09T09:18:17.288Z,87.10
2018-05-09T09:19:25.979Z,86.60
2018-05-09T09:20:34.768Z,86.20
2018-05-09T09:21:43.355Z,87.10
2018-05-09T09:22:52.211Z,87.10
2018-05-09T09:24:00.828Z,87.00
2018-05-09T09:25:09.369Z,87.00
2018-05-09T09:26:17.988Z,87.00
2018-05-09T09:27:26.632Z,87.20
2018-05-09T09:28:35.235Z,86.10
2018-05-09T09:29:43.965Z,85.40
2018-05-09T09:30:52.691Z,86.00
2018-05-09T09:32:01.263Z,85.90
2018-05-09T09:33:09.868Z,85.20
2018-05-09T09:34:18.523Z,84.00
2018-05-09T09:35:28.066Z,83.70
2018-05-09T09:36:36.718Z,83.70
2018-05-09T09:37:45.435Z,84.20
2018-05-09T09:38:54.948Z,84.20
2018-05-09T09:40:03.672Z,84.00
2018-05-09T09:41:12.256Z,83.60
2018-05-09T09:42:21.020Z,83.60
2018-05-09T09:43:29.685Z,83.90
2018-05-09T09:44:38.250Z,84.30
2018-05-09T09:45:47.715Z,84.50
2018-05-09T09:46:56.548Z,84.50
2018-05-09T09:48:05.131Z,84.70
2018-05-09T09:49:13.803Z,84.30
2018-05-09T09:50:23.284Z,84.20
2018-05-09T09:51:32.034Z,84.00
2018-05-09T09:52:40.735Z,83.70
2018-05-09T09:53:49.413Z,82.50
2018-05-09T09:54:58.110Z,81.70
2018-05-09T09:56:07.677Z,82.10
2018-05-09T09:57:17.113Z,82.10
2018-05-09T09:58:25.782Z,82.00
2018-05-09T09:59:34.553Z,82.40
2018-05-09T10:00:43.145Z,82.30
2018-05-09T10:01:52.683Z,82.40
2018-05-09T10:03:01.287Z,82.00
2018-05-09T10:04:09.852Z,81.60
2018-05-09T10:05:18.619Z,81.50
2018-05-09T10:06:27.250Z,81.20
2018-05-09T10:07:35.925Z,80.90
2018-05-09T10:08:45.276Z,80.50
2018-05-09T10:09:53.943Z,80.40
2018-05-09T10:11:02.787Z,80.50
2018-05-09T10:12:11.503Z,79.90
2018-05-09T10:13:21.610Z,79.60
2018-05-09T10:14:30.233Z,79.60
2018-05-09T10:15:38.847Z,80.00
2018-05-09T10:16:47.430Z,80.70
2018-05-09T10:17:56.039Z,80.00
2018-05-09T10:19:05.479Z,78.30
2018-05-09T10:20:14.143Z,78.30
2018-05-09T10:21:22.838Z,77.90
2018-05-09T10:22:31.424Z,77.30
2018-05-09T10:23:40.006Z,77.20
2018-05-09T10:24:49.335Z,77.00
2018-05-09T10:25:58.021Z,77.00
2018-05-09T10:27:06.664Z,75.90
2018-05-09T10:28:16.129Z,75.80
2018-05-09T10:29:25.701Z,76.20
2018-05-09T10:30:34.254Z,75.50
2018-05-09T10:31:42.953Z,75.50
2018-05-09T10:32:51.619Z,74.80
2018-05-09T10:34:00.235Z,75.40
2018-05-09T10:35:08.947Z,75.50
2018-05-09T10:36:17.584Z,74.60
2018-05-09T10:37:26.320Z,74.60
2018-05-09T10:38:34.982Z,74.50
2018-05-09T10:39:43.575Z,74.70
2018-05-09T10:40:52.322Z,74.20
2018-05-09T10:42:01.013Z,73.70
2018-05-09T10:43:10.695Z,73.70
2018-05-09T10:44:19.255Z,73.60
2018-05-09T10:45:27.932Z,73.60
2018-05-09T10:46:36.768Z,73.50
2018-05-09T10:47:45.452Z,73.90
2018-05-09T10:48:54.100Z,71.90
2018-05-09T10:50:02.956Z,70.90
2018-05-09T10:51:11.503Z,71.10
2018-05-09T10:52:20.189Z,71.50
2018-05-09T10:53:29.000Z,71.60
2018-05-09T10:54:37.660Z,71.20
2018-05-09T10:55:46.290Z,71.10
2018-05-09T10:56:55.110Z,70.10
2018-05-09T10:58:03.794Z,70.10
2018-05-09T10:59:12.418Z,69.30
2018-05-09T11:00:21.079Z,69.10
2018-05-09T11:01:29.692Z,69.20
2018-05-09T11:02:39.257Z,67.60
2018-05-09T11:03:48.028Z,68.10
2018-05-09T11:04:56.828Z,68.80
2018-05-09T11:06:05.622Z,69.20
2018-05-09T11:07:14.397Z,68.80
2018-05-09T11:08:23.254Z,69.00
2018-05-09T11:09:31.965Z,68.60
2018-05-09T11:10:40.683Z,68.90
2018-05-09T11:11:50.178Z,68.90
2018-05-09T11:12:58.905Z,68.80
2018-05-09T11:14:07.730Z,67.70
2018-05-09T11:15:16.504Z,68.20
2018-05-09T11:16:25.059Z,68.00
2018-05-09T11:17:33.680Z,67.30
2018-05-09T11:18:42.231Z,65.90
2018-05-09T11:19:51.775Z,65.90
2018-05-09T11:21:00.380Z,65.30
2018-05-09T11:22:09.068Z,65.50
2018-05-09T11:23:17.665Z,65.40
2018-05-09T11:24:26.449Z,65.30
2018-05-09T11:25:34.902Z,65.90
2018-05-09T11:26:43.571Z,66.20
2018-05-09T11:27:52.364Z,65.90
2018-05-09T11:29:01.071Z,64.80
2018-05-09T11:30:09.854Z,64.40
2018-05-09T11:31:18.541Z,63.90
2018-05-09T11:32:27.168Z,63.70
2018-05-09T11:33:36.698Z,64.80
2018-05-09T11:34:45.408Z,64.80
2018-05-09T11:35:54.085Z,65.50
2018-05-09T11:37:02.743Z,65.90
2018-05-09T11:38:11.452Z,65.50
2018-05-09T11:39:20.047Z,65.30
2018-05-09T11:40:28.710Z,64.20
2018-05-09T11:41:37.271Z,64.00
2018-05-09T11:42:46.001Z,64.30
2018-05-09T11:43:54.757Z,64.70
2018-05-09T11:45:03.568Z,64.70
2018-05-09T11:46:12.968Z,64.70
2018-05-09T11:47:21.699Z,64.70
2018-05-09T11:48:30.280Z,64.50
2018-05-09T11:49:39.069Z,64.40
2018-05-09T11:50:47.892Z,64.00
2018-05-09T11:51:56.487Z,64.00
2018-05-09T11:53:05.842Z,63.00
2018-05-09T11:54:14.452Z,63.00
2018-05-09T11:55:23.088Z,62.50
2018-05-09T11:56:31.875Z,62.00
2018-05-09T11:57:40.579Z,61.80
2018-05-09T11:58:49.110Z,61.80
2018-05-09T11:59:57.822Z,62.60
2018-05-09T12:01:06.525Z,62.70
2018-05-09T12:02:16.046Z,62.10
2018-05-09T12:03:24.656Z,62.00
2018-05-09T12:04:34.067Z,63.40
2018-05-09T12:05:42.899Z,63.30
2018-05-09T12:06:51.512Z,63.60
2018-05-09T12:08:00.236Z,63.60
2018-05-09T12:09:09.003Z,62.70
2018-05-09T12:10:17.651Z,62.70
2018-05-09T12:11:26.242Z,62.90
2018-05-09T12:12:34.939Z,63.40
2018-05-09T12:13:43.667Z,63.70
2018-05-09T12:14:52.260Z,63.80
2018-05-09T12:16:00.952Z,64.00
2018-05-09T12:17:09.626Z,64.10
2018-05-09T12:18:18.355Z,63.90
2018-05-09T12:19:27.128Z,62.70
2018-05-09T12:20:35.687Z,62.40
2018-05-09T12:21:44.331Z,62.40
2018-05-09T12:22:53.020Z,62.10
2018-05-09T12:24:01.567Z,61.90
2018-05-09T12:25:10.222Z,61.90
2018-05-09T12:26:18.982Z,61.20
2018-05-09T12:27:28.564Z,60.60
2018-05-09T12:28:37.345Z,60.50
2018-05-09T12:29:46.053Z,60.60
2018-05-09T12:30:54.626Z,61.10
2018-05-09T12:32:04.165Z,60.00
2018-05-09T12:33:12.857Z,60.00
2018-05-09T12:34:21.618Z,59.80
2018-05-09T12:35:30.468Z,60.00
2018-05-09T12:36:39.229Z,60.80
2018-05-09T12:37:47.794Z,60.70
2018-05-09T12:38:56.465Z,60.60
2018-05-09T12:40:06.046Z,60.60
2018-05-09T12:41:14.727Z,60.60
2018-05-09T12:42:23.293Z,60.80
2018-05-09T12:43:31.820Z,60.70
2018-05-09T12:44:40.316Z,60.60
2018-05-09T12:45:48.999Z,60.20
2018-05-09T12:46:57.773Z,60.00
2018-05-09T12:48:07.243Z,59.80
2018-05-09T12:49:15.967Z,59.70
2018-05-09T12:50:24.602Z,59.60
2018-05-09T12:51:33.168Z,59.60
2018-05-09T12:52:41.819Z,59.70
2018-05-09T12:53:50.605Z,59.50
2018-05-09T12:54:59.320Z,59.30
2018-05-09T12:56:07.906Z,59.20
2018-05-09T12:57:16.603Z,59.10
2018-05-09T12:58:25.316Z,59.40
2018-05-09T12:59:34.016Z,59.30
2018-05-09T13:00:42.660Z,58.90
2018-05-09T13:01:51.280Z,58.90
2018-05-09T13:02:59.884Z,59.40
2018-05-09T13:04:08.522Z,59.50
2018-05-09T13:05:18.035Z,58.90
2018-05-09T13:06:26.883Z,58.90
2018-05-09T13:07:35.672Z,58.70
2018-05-09T13:08:44.507Z,58.40
2018-05-09T13:09:53.126Z,57.90
2018-05-09T13:11:02.011Z,57.20
2018-05-09T13:12:10.783Z,57.00
2018-05-09T13:13:20.249Z,57.30
2018-05-09T13:14:28.842Z,57.30
2018-05-09T13:15:37.559Z,57.40
2018-05-09T13:16:46.303Z,57.80
2018-05-09T13:17:55.792Z,58.30
2018-05-09T13:19:04.444Z,58.30
2018-05-09T13:20:14.048Z,57.70
2018-05-09T13:21:22.697Z,57.60
2018-05-09T13:22:31.387Z,57.10
2018-05-09T13:23:39.975Z,56.90
2018-05-09T13:24:48.865Z,56.50
2018-05-09T13:25:57.439Z,56.50
2018-05-09T13:27:06.111Z,56.30
2018-05-09T13:28:14.919Z,56.20
2018-05-09T13:29:23.743Z,56.60
2018-05-09T13:30:32.415Z,56.60
2018-05-09T13:31:41.081Z,56.80
2018-05-09T13:32:49.751Z,56.60
2018-05-09T13:33:58.356Z,56.60
2018-05-09T13:35:07.008Z,56.70
2018-05-09T13:36:15.673Z,57.50
2018-05-09T13:37:24.502Z,58.00
2018-05-09T13:38:33.209Z,57.90
2018-05-09T13:39:41.783Z,58.50
2018-05-09T13:40:50.420Z,58.40
2018-05-09T13:41:59.046Z,58.30
2018-05-09T13:43:08.696Z,58.80
2018-05-09T13:44:18.249Z,59.40
2018-05-09T13:45:26.861Z,59.20
2018-05-09T13:46:35.547Z,59.90
2018-05-09T13:47:44.311Z,61.00
2018-05-09T13:48:53.839Z,63.90
2018-05-09T13:50:02.452Z,63.60
2018-05-09T13:51:12.077Z,65.40
2018-05-09T13:52:20.671Z,65.40
2018-05-09T13:53:30.053Z,67.70
2018-05-09T13:54:38.874Z,67.70
2018-05-09T13:55:48.412Z,66.50
2018-05-09T13:56:57.149Z,66.50
2018-05-09T13:58:05.776Z,66.10
2018-05-09T13:59:14.461Z,66.10
2018-05-09T14:00:23.085Z,66.20
2018-05-09T14:01:31.736Z,66.50
2018-05-09T14:02:40.315Z,67.00
2018-05-09T14:03:49.072Z,68.00
2018-05-09T14:04:57.701Z,68.20
2018-05-09T14:06:06.434Z,68.00
2018-05-09T14:07:15.172Z,68.00
2018-05-09T14:08:23.899Z,69.20
2018-05-09T14:09:32.540Z,68.00
2018-05-09T14:10:41.239Z,67.90
2018-05-09T14:11:49.838Z,67.40
2018-05-09T14:12:58.529Z,67.60
2018-05-09T14:14:08.019Z,68.80
2018-05-09T14:15:16.645Z,68.80
2018-05-09T14:16:26.097Z,68.90
2018-05-09T14:17:34.819Z,68.80
2018-05-09T14:18:43.592Z,68.40
2018-05-09T14:19:52.155Z,68.60
2018-05-09T14:21:00.755Z,68.80
2018-05-09T14:22:10.231Z,69.10
2018-05-09T14:23:19.059Z,68.30
2018-05-09T14:24:27.753Z,68.30
2018-05-09T14:25:36.586Z,69.20
2018-05-09T14:26:45.276Z,69.50
2018-05-09T14:27:53.944Z,68.40
2018-05-09T14:29:02.568Z,67.30
2018-05-09T14:30:11.330Z,66.30
2018-05-09T14:31:19.932Z,65.80
2018-05-09T14:32:28.742Z,63.90
2018-05-09T14:33:37.288Z,64.30
2018-05-09T14:34:45.929Z,64.30
2018-05-09T14:35:54.652Z,64.60
2018-05-09T14:37:03.323Z,64.40
2018-05-09T14:38:12.668Z,64.00
2018-05-09T14:39:21.416Z,63.90
2018-05-09T14:40:30.272Z,64.30
2018-05-09T14:41:39.051Z,64.90
2018-05-09T14:42:47.859Z,65.10
2018-05-09T14:43:56.525Z,64.50
2018-05-09T14:45:05.151Z,64.20
2018-05-09T14:46:14.647Z,64.10
2018-05-09T14:47:23.434Z,64.10